M I D A S
Marine Information and Data Acquisition System
Tripno 584 of the Zeeleeuw from 2003-09-05 06:59:14 to 2003-09-05 13:47:11
Back to CruiseResearch ActivitiesStationsMapUnderway DataData graphs

EquipmentUnitsComment
TimeDGPSUTC
LatitudeDGPSDM.mWGS84
LongitudeDGPSDM.mWGS84
HeadingGyrodeg 
SOGDGPSknotsSpeed over ground
COGDGPSdegCourse over ground
DepthEcho soundermeters200 kHz
Missing or incorrect values are displayed as -999
Navigation data collected by the RV Zeeleeuw from 2003-09-05 06:59:14 to 2003-09-05 13:47:11
                                                                                    Next 1000 lines
Time Latitude Longitude Heading SOG COG Depth
2003-09-05 06:59:24 51°14.36 2°55.1 307 7.9 301 13.1
2003-09-05 06:59:30 51°14.37 2°55.08 306.3 8.1 302 13.1
2003-09-05 06:59:34 51°14.38 2°55.07 306.3 8.3 303 13.3
2003-09-05 06:59:40 51°14.38 2°55.05 306.9 8.3 306 13.6
2003-09-05 06:59:44 51°14.39 2°55.04 309.1 8.4 307 13.1
2003-09-05 06:59:50 51°14.4 2°55.02 310.3 8.5 310 13
2003-09-05 06:59:54 51°14.4 2°55.01 310.6 8.5 310 12.9
2003-09-05 07:00:00 51°14.41 2°54.99 310.2 8.5 310 13.2
2003-09-05 07:00:04 51°14.42 2°54.98 309.7 8.5 310 12.7
2003-09-05 07:00:10 51°14.43 2°54.96 308.6 8.4 308 12.9
2003-09-05 07:00:14 51°14.43 2°54.95 306 8.3 306 13.1
2003-09-05 07:00:20 51°14.44 2°54.93 301.2 8.1 300 13.1
2003-09-05 07:00:24 51°14.44 2°54.92 294.8 7.9 294 12.9
2003-09-05 07:00:30 51°14.45 2°54.9 290.2 7.9 289 13.4
2003-09-05 07:00:34 51°14.45 2°54.89 286.3 7.8 285 13.5
2003-09-05 07:00:40 51°14.45 2°54.87 283.5 7.8 283 13.4
2003-09-05 07:00:44 51°14.45 2°54.85 281.1 7.8 280 13.2
2003-09-05 07:00:50 51°14.46 2°54.83 279.4 7.8 279 13.5
2003-09-05 07:00:54 51°14.46 2°54.82 278.4 7.8 277 13.6
2003-09-05 07:01:00 51°14.46 2°54.8 277.5 7.9 275 13.6
2003-09-05 07:01:04 51°14.46 2°54.78 276.4 7.9 275 13.6
2003-09-05 07:01:10 51°14.46 2°54.76 274.3 7.8 272 12.9
2003-09-05 07:01:14 51°14.46 2°54.75 271.9 7.7 270 13.2
2003-09-05 07:01:20 51°14.46 2°54.73 269 7.5 267 13.2
2003-09-05 07:01:24 51°14.46 2°54.72 266.2 7.1 265 13.9
2003-09-05 07:01:30 51°14.46 2°54.7 264.1 6.6 263 13.1
2003-09-05 07:01:34 51°14.46 2°54.69 262.3 6.2 262 13.1
2003-09-05 07:01:40 51°14.45 2°54.67 260.9 5.9 261 13
2003-09-05 07:01:44 51°14.45 2°54.66 260.2 5.6 260 13.3
2003-09-05 07:01:50 51°14.45 2°54.65 259.5 5.3 260 12.9
2003-09-05 07:01:54 51°14.45 2°54.64 259.3 5 260 12.9
2003-09-05 07:02:00 51°14.45 2°54.63 259.3 4.8 260 13.1
2003-09-05 07:02:04 51°14.45 2°54.62 259.5 4.7 261 13.6
2003-09-05 07:02:10 51°14.45 2°54.61 259.9 4.5 261 12.9
2003-09-05 07:02:14 51°14.45 2°54.6 260.5 4.3 262 12.9
2003-09-05 07:02:20 51°14.45 2°54.59 261.3 4.1 262 13.4
2003-09-05 07:02:24 51°14.45 2°54.58 262.5 4 265 13.3
2003-09-05 07:02:30 51°14.45 2°54.57 263.6 3.9 265 13.5
2003-09-05 07:02:34 51°14.45 2°54.57 264.8 3.8 269 13.1
2003-09-05 07:02:40 51°14.45 2°54.56 266.3 3.7 268 13.6
2003-09-05 07:02:44 51°14.45 2°54.55 267.8 3.6 273 13
2003-09-05 07:02:50 51°14.45 2°54.54 269.4 3.5 273 13.6
2003-09-05 07:02:54 51°14.45 2°54.54 271.3 3.4 276 13.8
2003-09-05 07:03:00 51°14.45 2°54.53 272.9 3.4 278 13
2003-09-05 07:03:04 51°14.45 2°54.52 274.3 3.3 281 13.5
2003-09-05 07:03:10 51°14.45 2°54.51 276.4 3.2 282 13.8
2003-09-05 07:03:14 51°14.45 2°54.51 277.8 3.2 286 13.7
2003-09-05 07:03:20 51°14.45 2°54.5 279.5 3.1 286 13.2
2003-09-05 07:03:24 51°14.45 2°54.49 280.9 3.1 290 13.8
2003-09-05 07:03:30 51°14.45 2°54.49 281.8 3.1 290 13.8
2003-09-05 07:03:36 51°14.46 2°54.48 282 3 291 14.2
2003-09-05 07:03:40 51°14.46 2°54.47 282.1 2.9 291 14.2
2003-09-05 07:03:44 51°14.46 2°54.47 281.6 2.9 291 13.6
2003-09-05 07:03:50 51°14.46 2°54.46 280.8 2.8 289 13.9
2003-09-05 07:03:54 51°14.46 2°54.46 280.1 2.8 291 13
2003-09-05 07:04:00 51°14.46 2°54.45 279.3 2.7 288 13
2003-09-05 07:04:04 51°14.46 2°54.45 278.2 2.7 290 13.7
2003-09-05 07:04:10 51°14.46 2°54.44 276.9 2.6 286 13.8
2003-09-05 07:04:14 51°14.47 2°54.44 275.2 2.6 287 14
2003-09-05 07:04:20 51°14.47 2°54.43 273.8 2.5 285 13.8
2003-09-05 07:04:24 51°14.47 2°54.43 272.2 2.5 283 13.8
2003-09-05 07:04:30 51°14.47 2°54.42 270.7 2.3 280 13.4
2003-09-05 07:04:34 51°14.47 2°54.42 268.7 2.4 280 13.5
2003-09-05 07:04:40 51°14.47 2°54.41 267.5 2.2 277 13.9
2003-09-05 07:04:44 51°14.47 2°54.41 266.1 2.2 275 13.7
2003-09-05 07:04:50 51°14.47 2°54.4 264.8 2.2 274 13.7
2003-09-05 07:04:54 51°14.47 2°54.4 263.6 2.1 274 13.9
2003-09-05 07:05:00 51°14.47 2°54.39 263.2 2.1 272 13.3
2003-09-05 07:05:04 51°14.47 2°54.39 262.7 2.1 274 13.6
2003-09-05 07:05:10 51°14.47 2°54.38 262 2.1 272 13.7
2003-09-05 07:05:14 51°14.47 2°54.38 261.2 2.1 272 13.8
2003-09-05 07:05:20 51°14.47 2°54.37 261.1 2.1 271 13.7
2003-09-05 07:05:24 51°14.47 2°54.37 260.6 2.1 270 13.7
2003-09-05 07:05:30 51°14.47 2°54.36 260.2 2 268 13.2
2003-09-05 07:05:34 51°14.47 2°54.36 259.6 2 270 13.5
2003-09-05 07:05:40 51°14.47 2°54.36 259.1 2 268 13.4
2003-09-05 07:05:44 51°14.47 2°54.35 258.7 2 268 13.6
2003-09-05 07:05:50 51°14.47 2°54.35 258.3 2 268 13.6
2003-09-05 07:05:56 51°14.47 2°54.34 257.9 1.9 267 13.5
2003-09-05 07:06:00 51°14.47 2°54.34 257.6 1.9 267 13.7
2003-09-05 07:06:04 51°14.47 2°54.33 257.3 1.9 265 13.6
2003-09-05 07:06:10 51°14.47 2°54.33 256.9 2 268 13.5
2003-09-05 07:06:14 51°14.47 2°54.33 256.3 1.9 264 13.5
2003-09-05 07:06:20 51°14.47 2°54.32 256 1.9 264 13.6
2003-09-05 07:06:24 51°14.47 2°54.32 255.5 1.9 262 13.1
2003-09-05 07:06:30 51°14.47 2°54.31 255.1 2.5 259 13.3
2003-09-05 07:06:34 51°14.47 2°54.31 254.7 3.3 255 13.5
2003-09-05 07:06:40 51°14.46 2°54.29 254.2 4.5 253 13.1
2003-09-05 07:06:44 51°14.46 2°54.28 254 5 252 12.6
2003-09-05 07:06:50 51°14.46 2°54.27 253.9 6 252 12.2
2003-09-05 07:06:54 51°14.46 2°54.26 253.9 6.8 253 12
2003-09-05 07:07:00 51°14.45 2°54.24 254.4 7.4 251 11.9
2003-09-05 07:07:04 51°14.45 2°54.23 254.4 8 252 11.8
2003-09-05 07:07:10 51°14.45 2°54.2 253.9 8.8 251 11.8
2003-09-05 07:07:14 51°14.44 2°54.19 253.8 9.2 251 11.9
2003-09-05 07:07:20 51°14.44 2°54.16 253.3 9.8 250 11.8
2003-09-05 07:07:24 51°14.43 2°54.15 253.1 10.1 249 11.9
2003-09-05 07:07:30 51°14.43 2°54.12 252.8 10.6 250 11.8
2003-09-05 07:07:36 51°14.42 2°54.09 251.9 11 246 11.8
2003-09-05 07:07:40 51°14.41 2°54.08 249.6 11.3 245 11.8
2003-09-05 07:07:44 51°14.41 2°54.06 249.1 11.6 246 11.8
2003-09-05 07:07:50 51°14.4 2°54.03 247.2 11.9 243 11.9
2003-09-05 07:07:54 51°14.39 2°54.01 247.5 12 245 11.8
2003-09-05 07:08:00 51°14.38 2°53.98 247.5 12.1 243 11.8
2003-09-05 07:08:04 51°14.38 2°53.96 247 12.2 244 11.9
2003-09-05 07:08:10 51°14.37 2°53.93 247.4 12.3 243 12
2003-09-05 07:08:14 51°14.36 2°53.91 247.2 12.3 244 11.9
2003-09-05 07:08:20 51°14.35 2°53.88 247.5 12.3 244 11.9
2003-09-05 07:08:24 51°14.35 2°53.86 246.7 12.4 242 11.8
2003-09-05 07:08:30 51°14.34 2°53.83 246.1 12.5 243 11.9
2003-09-05 07:08:34 51°14.33 2°53.81 246.1 12.5 242 11.9
2003-09-05 07:08:40 51°14.32 2°53.79 245.4 12.5 241 11.9
2003-09-05 07:08:44 51°14.32 2°53.77 245.3 12.5 242 11.9
2003-09-05 07:08:50 51°14.3 2°53.74 244.5 12.4 240 11.9
2003-09-05 07:08:54 51°14.3 2°53.72 244.7 12.4 242 11.8
2003-09-05 07:09:00 51°14.29 2°53.69 244.6 12.5 240 11.8
2003-09-05 07:09:04 51°14.28 2°53.67 244.2 12.5 241 11.9
2003-09-05 07:09:10 51°14.27 2°53.64 244.1 12.5 241 11.9
2003-09-05 07:09:14 51°14.26 2°53.62 244.6 12.5 241 11.9
2003-09-05 07:09:20 51°14.25 2°53.59 244.4 12.6 240 11.9
2003-09-05 07:09:24 51°14.25 2°53.57 244.3 12.6 241 11.9
2003-09-05 07:09:30 51°14.24 2°53.55 244.7 12.5 240 12
2003-09-05 07:09:34 51°14.23 2°53.53 245 12.5 241 12
2003-09-05 07:09:40 51°14.22 2°53.5 245 12.5 241 12
2003-09-05 07:09:44 51°14.21 2°53.48 245.4 12.5 242 12
2003-09-05 07:09:50 51°14.2 2°53.45 245.4 12.5 241 12.1
2003-09-05 07:09:54 51°14.2 2°53.43 245 12.5 240 12.1
2003-09-05 07:10:00 51°14.19 2°53.4 244.3 12.5 240 12.2
2003-09-05 07:10:04 51°14.18 2°53.38 244.1 12.4 241 12.2
2003-09-05 07:10:10 51°14.17 2°53.35 243.6 12.5 240 12.2
2003-09-05 07:10:14 51°14.16 2°53.33 244 12.5 240 12.2
2003-09-05 07:10:20 51°14.15 2°53.31 244.1 12.5 240 12.3
2003-09-05 07:10:24 51°14.14 2°53.29 244.3 12.6 240 12.3
2003-09-05 07:10:30 51°14.13 2°53.26 245.3 12.6 241 12.3
2003-09-05 07:10:34 51°14.13 2°53.24 245.2 12.6 241 12.3
2003-09-05 07:10:40 51°14.12 2°53.21 245.9 12.6 242 12.4
2003-09-05 07:10:44 51°14.11 2°53.19 246.1 12.5 242 12.4
2003-09-05 07:10:50 51°14.1 2°53.16 245.3 12.5 241 12.4
2003-09-05 07:10:54 51°14.09 2°53.14 245.3 12.5 243 12.4
2003-09-05 07:11:00 51°14.08 2°53.11 246 12.5 241 12.4
2003-09-05 07:11:04 51°14.08 2°53.09 244.6 12.6 240 12.6
2003-09-05 07:11:10 51°14.07 2°53.06 245.1 12.6 241 12.5
2003-09-05 07:11:14 51°14.06 2°53.04 245 12.5 241 12.7
2003-09-05 07:11:20 51°14.05 2°53.01 245.3 12.6 242 12.7
2003-09-05 07:11:24 51°14.04 2°52.99 245 12.6 240 12.5
2003-09-05 07:11:30 51°14.03 2°52.96 244.8 12.6 241 12.6
2003-09-05 07:11:34 51°14.03 2°52.94 245 12.7 242 12.6
2003-09-05 07:11:40 51°14.02 2°52.92 245.6 12.5 241 12.6
2003-09-05 07:11:44 51°14.01 2°52.9 245.1 12.5 241 12.7
2003-09-05 07:11:50 51°14 2°52.87 245.4 12.5 241 12.7
2003-09-05 07:11:54 51°13.99 2°52.85 244.6 12.7 241 12.8
2003-09-05 07:12:00 51°13.98 2°52.82 244.5 12.6 240 12.8
2003-09-05 07:12:04 51°13.98 2°52.8 243.9 12.6 240 12.9
2003-09-05 07:12:10 51°13.97 2°52.77 243.9 12.6 240 12.8
2003-09-05 07:12:16 51°13.96 2°52.74 245.1 12.6 242 12.9
2003-09-05 07:12:20 51°13.95 2°52.72 245.6 12.7 241 12.9
2003-09-05 07:12:24 51°13.94 2°52.7 246.2 12.6 242 12.9
2003-09-05 07:12:30 51°13.93 2°52.67 245.6 12.5 241 12.9
2003-09-05 07:12:34 51°13.92 2°52.65 245 12.5 241 12.8
2003-09-05 07:12:40 51°13.91 2°52.62 244.7 12.6 240 13
2003-09-05 07:12:44 51°13.91 2°52.61 244.5 12.6 240 13
2003-09-05 07:12:50 51°13.9 2°52.58 244 12.6 239 13
2003-09-05 07:12:54 51°13.89 2°52.56 243.8 12.7 240 12.9
2003-09-05 07:13:00 51°13.88 2°52.53 243.8 12.6 239 13
2003-09-05 07:13:04 51°13.87 2°52.51 244.5 12.6 241 12.9
2003-09-05 07:13:10 51°13.86 2°52.48 245.2 12.7 241 12.9
2003-09-05 07:13:14 51°13.86 2°52.46 245.8 12.7 242 13
2003-09-05 07:13:20 51°13.85 2°52.43 245.8 12.7 241 12.9
2003-09-05 07:13:24 51°13.84 2°52.41 245.9 12.6 243 13
2003-09-05 07:13:30 51°13.83 2°52.38 244.5 12.8 240 13
2003-09-05 07:13:34 51°13.82 2°52.36 245.9 12.7 244 13.1
2003-09-05 07:13:40 51°13.81 2°52.33 245.7 12.6 241 13
2003-09-05 07:13:44 51°13.81 2°52.31 245.8 12.7 243 13
2003-09-05 07:13:50 51°13.79 2°52.28 246 12.6 241 13
2003-09-05 07:13:54 51°13.79 2°52.26 245.2 12.6 241 13.1
2003-09-05 07:14:00 51°13.78 2°52.23 245 12.8 241 13.1
2003-09-05 07:14:04 51°13.77 2°52.21 245.7 12.7 242 13
2003-09-05 07:14:10 51°13.76 2°52.18 245.1 12.7 240 13
2003-09-05 07:14:14 51°13.75 2°52.16 244.8 12.8 241 13
2003-09-05 07:14:20 51°13.74 2°52.13 245.4 12.7 242 13.1
2003-09-05 07:14:24 51°13.74 2°52.12 244.6 12.7 239 13.1
2003-09-05 07:14:30 51°13.73 2°52.09 245.5 12.6 243 13
2003-09-05 07:14:34 51°13.72 2°52.07 245.6 12.5 240 13
2003-09-05 07:14:40 51°13.71 2°52.04 245.5 12.5 242 13.1
2003-09-05 07:14:44 51°13.7 2°52.02 244.5 12.5 238 13.1
2003-09-05 07:14:50 51°13.69 2°51.99 243.7 12.5 240 13
2003-09-05 07:14:54 51°13.68 2°51.97 243.8 12.5 239 13.1
2003-09-05 07:15:00 51°13.67 2°51.94 244.6 12.5 241 13.1
2003-09-05 07:15:04 51°13.67 2°51.92 245 12.5 240 13
2003-09-05 07:15:10 51°13.66 2°51.89 244.5 12.5 241 13.1
2003-09-05 07:15:14 51°13.65 2°51.87 245 12.6 241 13.1
2003-09-05 07:15:20 51°13.64 2°51.85 245.4 12.5 242 13.1
2003-09-05 07:15:24 51°13.63 2°51.83 244.5 12.5 239 13.1
2003-09-05 07:15:30 51°13.62 2°51.8 244.7 12.5 242 13.3
2003-09-05 07:15:36 51°13.61 2°51.77 245.2 12.5 241 13.2
2003-09-05 07:15:40 51°13.61 2°51.75 245.7 12.5 242 13.2
2003-09-05 07:15:44 51°13.6 2°51.73 245.8 12.6 241 13.2
2003-09-05 07:15:50 51°13.59 2°51.7 246.1 12.5 242 13.3
2003-09-05 07:15:54 51°13.58 2°51.68 245.6 12.6 241 13.2
2003-09-05 07:16:00 51°13.57 2°51.65 246 12.6 242 13.3
2003-09-05 07:16:04 51°13.57 2°51.63 245 12.7 239 13.2
2003-09-05 07:16:10 51°13.56 2°51.6 246.1 12.6 243 13.3
2003-09-05 07:16:14 51°13.55 2°51.58 245.5 12.6 242 13.3
2003-09-05 07:16:20 51°13.54 2°51.55 246 12.6 242 13.3
2003-09-05 07:16:24 51°13.53 2°51.53 246.1 12.5 241 13.3
2003-09-05 07:16:30 51°13.52 2°51.5 245.3 12.5 240 13.3
2003-09-05 07:16:34 51°13.52 2°51.49 245.1 12.5 241 13.3
2003-09-05 07:16:40 51°13.51 2°51.46 244.6 12.5 240 13.3
2003-09-05 07:16:44 51°13.5 2°51.44 245.1 12.5 241 13.3
2003-09-05 07:16:50 51°13.49 2°51.41 245.4 12.4 241 13.3
2003-09-05 07:16:54 51°13.48 2°51.39 244.8 12.4 241 13.3
2003-09-05 07:17:00 51°13.47 2°51.36 245.1 12.5 241 13.4
2003-09-05 07:17:04 51°13.47 2°51.34 244.8 12.5 240 13.4
2003-09-05 07:17:10 51°13.46 2°51.31 244.5 12.5 240 13.3
2003-09-05 07:17:14 51°13.45 2°51.29 244.8 12.5 241 13.4
2003-09-05 07:17:20 51°13.44 2°51.27 245.3 12.5 241 13.4
2003-09-05 07:17:24 51°13.43 2°51.25 244.6 12.5 240 13.4
2003-09-05 07:17:30 51°13.42 2°51.22 244.7 12.5 241 13.5
2003-09-05 07:17:34 51°13.41 2°51.2 244.5 12.5 239 13.5
2003-09-05 07:17:40 51°13.4 2°51.17 244.6 12.5 240 13.4
2003-09-05 07:17:44 51°13.4 2°51.15 245.3 12.5 241 13.3
2003-09-05 07:17:50 51°13.39 2°51.12 245.1 12.4 240 13.4
2003-09-05 07:17:54 51°13.38 2°51.1 245 12.5 241 13.5
2003-09-05 07:18:00 51°13.37 2°51.07 244.8 12.5 240 13.5
2003-09-05 07:18:04 51°13.36 2°51.05 244.9 12.5 241 13.5
2003-09-05 07:18:10 51°13.35 2°51.03 244.6 12.6 240 13.5
2003-09-05 07:18:14 51°13.35 2°51.01 244.9 12.6 242 13.4
2003-09-05 07:18:20 51°13.34 2°50.98 245.2 12.6 240 13.5
2003-09-05 07:18:24 51°13.33 2°50.96 245.2 12.6 241 13.3
2003-09-05 07:18:30 51°13.32 2°50.93 244.2 12.6 239 13.4
2003-09-05 07:18:34 51°13.31 2°50.91 244.7 12.6 241 13.5
2003-09-05 07:18:40 51°13.3 2°50.88 244.2 12.7 238 13.5
2003-09-05 07:18:44 51°13.3 2°50.86 245.8 12.6 244 13.5
2003-09-05 07:18:50 51°13.28 2°50.83 244.5 12.6 238 13.5
2003-09-05 07:18:54 51°13.28 2°50.81 245.2 12.7 243 13.6
2003-09-05 07:19:00 51°13.27 2°50.78 245.5 12.6 241 13.5
2003-09-05 07:19:04 51°13.26 2°50.76 246.5 12.6 244 13.6
2003-09-05 07:19:10 51°13.25 2°50.73 246.2 12.7 241 13.5
2003-09-05 07:19:14 51°13.25 2°50.71 246.9 12.7 244 13.4
2003-09-05 07:19:20 51°13.24 2°50.68 246.4 12.7 242 13.5
2003-09-05 07:19:24 51°13.23 2°50.66 247.2 12.6 243 13.6
2003-09-05 07:19:30 51°13.22 2°50.63 246.7 12.6 242 13.5
2003-09-05 07:19:34 51°13.21 2°50.61 246.5 12.6 242 13.7
2003-09-05 07:19:40 51°13.2 2°50.59 246.5 12.5 242 13.6
2003-09-05 07:19:44 51°13.2 2°50.57 245.9 12.4 241 13.6
2003-09-05 07:19:50 51°13.19 2°50.54 245 12.6 241 13.6
2003-09-05 07:19:54 51°13.18 2°50.52 245.2 12.7 241 13.6
2003-09-05 07:20:00 51°13.17 2°50.49 245 12.6 241 13.6
2003-09-05 07:20:04 51°13.16 2°50.47 244.9 12.7 240 13.6
2003-09-05 07:20:10 51°13.15 2°50.44 245 12.7 241 13.5
2003-09-05 07:20:16 51°13.14 2°50.41 244.9 12.7 240 13.6
2003-09-05 07:20:20 51°13.13 2°50.39 245.8 12.6 242 13.7
2003-09-05 07:20:24 51°13.13 2°50.37 245.8 12.6 240 13.8
2003-09-05 07:20:30 51°13.12 2°50.34 244.8 12.6 240 13.7
2003-09-05 07:20:34 51°13.11 2°50.32 244.7 12.7 239 13.7
2003-09-05 07:20:40 51°13.1 2°50.29 244.1 12.7 240 13.7
2003-09-05 07:20:44 51°13.09 2°50.27 244.9 12.6 242 13.7
2003-09-05 07:20:50 51°13.08 2°50.24 244.5 12.6 240 13.7
2003-09-05 07:20:54 51°13.07 2°50.22 245.3 12.7 241 13.7
2003-09-05 07:21:00 51°13.06 2°50.2 245.8 12.6 241 13.7
2003-09-05 07:21:04 51°13.06 2°50.18 244.2 12.6 239 13.8
2003-09-05 07:21:10 51°13.05 2°50.15 244.8 12.7 242 13.7
2003-09-05 07:21:14 51°13.04 2°50.13 244.9 12.7 240 13.8
2003-09-05 07:21:20 51°13.03 2°50.1 245.5 12.7 242 13.8
2003-09-05 07:21:24 51°13.02 2°50.08 245.7 12.7 241 13.8
2003-09-05 07:21:30 51°13.01 2°50.05 245.3 12.8 241 13.7
2003-09-05 07:21:34 51°13.01 2°50.03 245.5 12.8 241 13.7
2003-09-05 07:21:40 51°13 2°50 246.3 12.7 242 13.8
2003-09-05 07:21:44 51°12.99 2°49.98 246.4 12.8 242 13.8
2003-09-05 07:21:50 51°12.98 2°49.95 246.5 12.8 242 13.9
2003-09-05 07:21:54 51°12.97 2°49.93 246.6 12.8 242 13.7
2003-09-05 07:22:00 51°12.96 2°49.9 246.9 12.7 242 13.9
2003-09-05 07:22:04 51°12.96 2°49.88 246.2 12.8 241 13.9
2003-09-05 07:22:10 51°12.95 2°49.85 246 12.6 241 13.9
2003-09-05 07:22:14 51°12.94 2°49.83 246.3 12.6 243 13.9
2003-09-05 07:22:20 51°12.93 2°49.8 246.2 12.6 240 13.9
2003-09-05 07:22:24 51°12.92 2°49.78 245.2 12.5 241 13.9
2003-09-05 07:22:30 51°12.91 2°49.75 245 12.5 239 13.9
2003-09-05 07:22:34 51°12.91 2°49.74 244.9 12.5 241 13.9
2003-09-05 07:22:40 51°12.9 2°49.71 244.9 12.5 240 13.9
2003-09-05 07:22:44 51°12.89 2°49.69 244.5 12.6 240 13.9
2003-09-05 07:22:50 51°12.88 2°49.66 244.6 12.6 240 13.9
2003-09-05 07:22:54 51°12.87 2°49.64 244.8 12.6 241 13.9
2003-09-05 07:23:00 51°12.86 2°49.61 246 12.5 241 13.9
2003-09-05 07:23:04 51°12.86 2°49.59 244.9 12.6 240 13.9
2003-09-05 07:23:10 51°12.85 2°49.56 244.5 12.5 241 13.9
2003-09-05 07:23:14 51°12.84 2°49.54 245.3 12.5 241 13.9
2003-09-05 07:23:20 51°12.83 2°49.51 244.9 12.5 241 13.9
2003-09-05 07:23:24 51°12.82 2°49.49 245.6 12.4 242 14
2003-09-05 07:23:30 51°12.81 2°49.46 245.1 12.5 241 14.1
2003-09-05 07:23:34 51°12.81 2°49.45 244.8 12.5 241 14
2003-09-05 07:23:40 51°12.8 2°49.42 245 12.5 241 14
2003-09-05 07:23:44 51°12.79 2°49.4 245.3 12.4 242 14
2003-09-05 07:23:50 51°12.78 2°49.37 245.8 12.4 241 14
2003-09-05 07:23:54 51°12.77 2°49.35 245.5 12.4 241 13.9
2003-09-05 07:24:00 51°12.76 2°49.32 244.8 12.4 240 14
2003-09-05 07:24:04 51°12.75 2°49.3 244.2 12.5 239 14.1
2003-09-05 07:24:10 51°12.74 2°49.27 244 12.5 240 14.1
2003-09-05 07:24:14 51°12.74 2°49.25 244 12.5 240 14
2003-09-05 07:24:20 51°12.73 2°49.22 244 12.6 241 14.2
2003-09-05 07:24:24 51°12.72 2°49.21 245.3 12.5 241 14.1
2003-09-05 07:24:30 51°12.71 2°49.18 244.7 12.6 239 14.2
2003-09-05 07:24:34 51°12.7 2°49.16 244.2 12.7 241 14.2
2003-09-05 07:24:40 51°12.69 2°49.13 244.8 12.6 240 14.3
2003-09-05 07:24:44 51°12.69 2°49.11 244.3 12.5 240 14.2
2003-09-05 07:24:50 51°12.68 2°49.08 244.7 12.6 241 14.2
2003-09-05 07:24:54 51°12.67 2°49.06 245.2 12.6 241 14.2
2003-09-05 07:24:59 51°12.66 2°49.04 245.3 12.6 240 14.2
2003-09-05 07:25:04 51°12.65 2°49.01 244.6 12.6 240 14.3
2003-09-05 07:25:10 51°12.64 2°48.98 244.9 12.6 240 14.2
2003-09-05 07:25:14 51°12.63 2°48.96 244.7 12.7 240 14.3
2003-09-05 07:25:20 51°12.62 2°48.93 244.7 12.6 241 14.3
2003-09-05 07:25:24 51°12.62 2°48.92 245.2 12.9 239 14.2
2003-09-05 07:25:30 51°12.61 2°48.89 245.2 12.7 241 14.2
2003-09-05 07:25:34 51°12.6 2°48.87 245 12.7 240 14.3
2003-09-05 07:25:40 51°12.59 2°48.84 244.7 12.6 241 14.3
2003-09-05 07:25:44 51°12.58 2°48.82 244.6 12.6 240 14.2
2003-09-05 07:25:50 51°12.57 2°48.79 245.5 12.6 242 14.4
2003-09-05 07:25:54 51°12.56 2°48.77 245.7 12.7 240 14.4
2003-09-05 07:26:00 51°12.55 2°48.74 245.7 12.6 241 14.3
2003-09-05 07:26:04 51°12.55 2°48.72 245.3 12.7 240 14.4
2003-09-05 07:26:10 51°12.54 2°48.69 246.1 12.5 243 14.5
2003-09-05 07:26:14 51°12.53 2°48.67 246.3 12.5 241 14.5
2003-09-05 07:26:20 51°12.52 2°48.64 245.3 12.6 240 14.4
2003-09-05 07:26:24 51°12.51 2°48.62 245.3 12.6 242 14.3
2003-09-05 07:26:30 51°12.5 2°48.59 246 12.5 241 14.5
2003-09-05 07:26:34 51°12.5 2°48.57 245.3 12.5 240 14.5
2003-09-05 07:26:40 51°12.49 2°48.55 245.3 12.4 241 14.4
2003-09-05 07:26:44 51°12.48 2°48.53 244.9 12.5 239 14.5
2003-09-05 07:26:50 51°12.47 2°48.5 244.3 12.5 240 14.5
2003-09-05 07:26:54 51°12.46 2°48.48 244.4 12.6 240 14.5
2003-09-05 07:27:00 51°12.45 2°48.45 244 12.6 241 14.7
2003-09-05 07:27:04 51°12.44 2°48.43 244.5 12.6 240 14.4
2003-09-05 07:27:10 51°12.43 2°48.4 245.3 12.6 242 14.4
2003-09-05 07:27:14 51°12.43 2°48.38 245.6 12.6 241 14.6
2003-09-05 07:27:20 51°12.42 2°48.35 245.7 12.6 242 14.5
2003-09-05 07:27:24 51°12.41 2°48.33 245.7 12.5 241 14.5
2003-09-05 07:27:30 51°12.4 2°48.3 245.3 12.6 241 14.4
2003-09-05 07:27:34 51°12.4 2°48.28 245.4 12.6 241 14.6
2003-09-05 07:27:40 51°12.39 2°48.26 245.4 12.5 241 14.5
2003-09-05 07:27:44 51°12.38 2°48.24 244.3 12.7 239 14.5
2003-09-05 07:27:50 51°12.37 2°48.21 244.5 12.7 243 14.6
2003-09-05 07:27:54 51°12.36 2°48.19 245.9 12.6 241 14.5
2003-09-05 07:28:00 51°12.35 2°48.16 245.9 12.6 242 14.4
2003-09-05 07:28:04 51°12.35 2°48.14 245.9 12.8 241 14.6
2003-09-05 07:28:10 51°12.34 2°48.11 246 12.8 244 14.6
2003-09-05 07:28:14 51°12.33 2°48.09 247.2 12.7 243 14.6
2003-09-05 07:28:20 51°12.32 2°48.06 246.2 12.8 242 14.6
2003-09-05 07:28:24 51°12.31 2°48.04 246.5 12.8 244 14.5
2003-09-05 07:28:30 51°12.3 2°48.01 246.8 12.7 243 14.7
2003-09-05 07:28:34 51°12.3 2°47.99 246.4 12.7 242 14.6
2003-09-05 07:28:40 51°12.29 2°47.96 246 12.7 241 14.5
2003-09-05 07:28:44 51°12.28 2°47.94 245.1 12.7 241 14.6
2003-09-05 07:28:50 51°12.27 2°47.91 245.1 12.6 241 14.7
2003-09-05 07:28:54 51°12.26 2°47.89 244.7 12.6 240 14.7
2003-09-05 07:29:00 51°12.25 2°47.86 244.4 12.6 240 14.6
2003-09-05 07:29:04 51°12.25 2°47.84 245.1 12.6 241 14.7
2003-09-05 07:29:10 51°12.23 2°47.81 244.7 12.6 239 14.6
2003-09-05 07:29:14 51°12.23 2°47.79 243.8 12.7 240 14.8
2003-09-05 07:29:20 51°12.22 2°47.76 244.5 12.6 241 14.7
2003-09-05 07:29:24 51°12.21 2°47.74 245.3 12.6 241 14.3
2003-09-05 07:29:30 51°12.2 2°47.72 244.7 12.6 241 14.6
2003-09-05 07:29:34 51°12.19 2°47.7 244.4 12.7 240 14.6
2003-09-05 07:29:40 51°12.18 2°47.67 244.5 12.6 241 14.7
2003-09-05 07:29:44 51°12.17 2°47.65 245.1 12.6 241 14.7
2003-09-05 07:29:50 51°12.16 2°47.62 244.8 12.6 241 14.8
2003-09-05 07:29:54 51°12.16 2°47.6 245.1 12.6 242 14.8
2003-09-05 07:30:00 51°12.15 2°47.57 246 12.4 242 14.7
2003-09-05 07:30:04 51°12.14 2°47.55 245.3 12.5 240 14.8
2003-09-05 07:30:10 51°12.13 2°47.52 244.5 12.6 240 14.8
2003-09-05 07:30:14 51°12.12 2°47.5 243.8 12.6 240 14.7
2003-09-05 07:30:20 51°12.11 2°47.47 244.8 12.6 241 14.8
2003-09-05 07:30:24 51°12.11 2°47.45 244.5 12.6 240 14.9
2003-09-05 07:30:30 51°12.1 2°47.42 245.7 12.5 243 14.8
2003-09-05 07:30:34 51°12.09 2°47.4 245.9 12.5 240 14.8
2003-09-05 07:30:40 51°12.08 2°47.38 244.9 12.7 242 14.8
2003-09-05 07:30:44 51°12.07 2°47.36 245.8 12.5 242 14.7
2003-09-05 07:30:50 51°12.06 2°47.33 245.7 12.5 242 14.8
2003-09-05 07:30:54 51°12.06 2°47.31 245.6 12.5 242 14.6
2003-09-05 07:31:00 51°12.05 2°47.28 245.9 12.5 241 14.7
2003-09-05 07:31:04 51°12.04 2°47.26 245.8 12.5 242 14.7
2003-09-05 07:31:10 51°12.03 2°47.23 245.5 12.5 241 14.7
2003-09-05 07:31:14 51°12.02 2°47.21 245.7 12.5 242 14.7
2003-09-05 07:31:20 51°12.01 2°47.18 245.3 12.6 240 14.7
2003-09-05 07:31:24 51°12.01 2°47.16 245.2 12.5 242 14.8
2003-09-05 07:31:30 51°12 2°47.13 244.8 12.5 240 14.5
2003-09-05 07:31:34 51°11.99 2°47.11 244.3 12.5 242 14.9
2003-09-05 07:31:40 51°11.98 2°47.09 244.1 12.5 240 14.7
2003-09-05 07:31:44 51°11.97 2°47.07 244.3 12.5 242 14.7
2003-09-05 07:31:50 51°11.96 2°47.04 245.1 12.4 240 14.6
2003-09-05 07:31:54 51°11.96 2°47.02 244.3 12.5 240 14.6
2003-09-05 07:32:00 51°11.95 2°46.99 244.5 12.5 241 14.6
2003-09-05 07:32:04 51°11.94 2°46.97 245.3 12.5 241 14.7
2003-09-05 07:32:10 51°11.93 2°46.94 244.8 12.6 240 14.6
2003-09-05 07:32:14 51°11.92 2°46.92 244.6 12.6 241 14.7
2003-09-05 07:32:20 51°11.91 2°46.89 245.5 12.6 243 14.6
2003-09-05 07:32:24 51°11.91 2°46.87 246.7 12.5 243 14.8
2003-09-05 07:32:30 51°11.9 2°46.84 246.7 12.6 243 14.7
2003-09-05 07:32:34 51°11.89 2°46.82 246.7 12.5 243 14.8
2003-09-05 07:32:40 51°11.88 2°46.79 246.7 12.5 243 14.7
2003-09-05 07:32:44 51°11.87 2°46.77 246.3 12.5 242 14.6
2003-09-05 07:32:50 51°11.86 2°46.74 245.6 12.5 242 14.7
2003-09-05 07:32:54 51°11.86 2°46.73 245.5 12.6 242 14.7
2003-09-05 07:33:00 51°11.85 2°46.7 245.5 12.6 242 14.6
2003-09-05 07:33:04 51°11.84 2°46.68 245.8 12.5 241 14.7
2003-09-05 07:33:10 51°11.83 2°46.65 245.2 12.6 243 14.6
2003-09-05 07:33:14 51°11.82 2°46.63 245.5 12.6 241 14.7
2003-09-05 07:33:20 51°11.81 2°46.6 244.9 12.6 243 14.6
2003-09-05 07:33:24 51°11.81 2°46.58 245.5 12.6 241 14.7
2003-09-05 07:33:30 51°11.8 2°46.55 244.8 12.7 242 14.8
2003-09-05 07:33:34 51°11.79 2°46.53 245.8 12.6 243 14.8
2003-09-05 07:33:40 51°11.78 2°46.5 246.7 12.6 240 14.6
2003-09-05 07:33:44 51°11.77 2°46.48 245.3 12.8 242 14.6
2003-09-05 07:33:50 51°11.76 2°46.45 246 12.7 242 14.6
2003-09-05 07:33:54 51°11.76 2°46.43 246.2 12.6 243 14.7
2003-09-05 07:34:00 51°11.75 2°46.4 245.9 12.7 241 14.6
2003-09-05 07:34:04 51°11.74 2°46.38 246 12.8 244 14.7
2003-09-05 07:34:10 51°11.73 2°46.35 246.8 12.6 243 14.6
2003-09-05 07:34:14 51°11.73 2°46.33 246.6 12.7 242 14.6
2003-09-05 07:34:20 51°11.72 2°46.3 246.1 12.7 244 14.7
2003-09-05 07:34:24 51°11.71 2°46.28 246.2 12.6 242 14.6
2003-09-05 07:34:30 51°11.7 2°46.25 245.5 12.7 243 14.6
2003-09-05 07:34:34 51°11.69 2°46.23 245.6 12.7 242 14.6
2003-09-05 07:34:40 51°11.68 2°46.2 245.4 12.7 243 14.6
2003-09-05 07:34:44 51°11.68 2°46.18 245.7 12.7 242 14.6
2003-09-05 07:34:50 51°11.67 2°46.15 244.8 12.6 242 14.6
2003-09-05 07:34:54 51°11.66 2°46.13 244.8 12.7 242 14.6
2003-09-05 07:35:00 51°11.65 2°46.1 244.9 12.6 243 14.6
2003-09-05 07:35:04 51°11.65 2°46.08 246 12.5 242 14.6
2003-09-05 07:35:10 51°11.64 2°46.05 245.6 12.5 242 14.5
2003-09-05 07:35:14 51°11.63 2°46.04 245.3 12.5 242 14.4
2003-09-05 07:35:20 51°11.62 2°46.01 244.9 12.5 240 14.4
2003-09-05 07:35:24 51°11.61 2°45.99 244.8 12.6 242 14.4
2003-09-05 07:35:30 51°11.6 2°45.96 245 12.5 240 14.4
2003-09-05 07:35:34 51°11.6 2°45.94 244.2 12.5 240 14.3
2003-09-05 07:35:40 51°11.59 2°45.91 244.4 12.5 242 14.3
2003-09-05 07:35:44 51°11.58 2°45.89 245.1 12.5 241 14.2
2003-09-05 07:35:50 51°11.57 2°45.86 245.1 12.6 242 14.2
2003-09-05 07:35:54 51°11.56 2°45.84 245.3 12.5 241 14.3
2003-09-05 07:36:00 51°11.55 2°45.81 245 12.7 242 14.3
2003-09-05 07:36:04 51°11.55 2°45.79 245.3 12.7 243 14.2
2003-09-05 07:36:10 51°11.54 2°45.76 245.6 12.6 242 14.3
2003-09-05 07:36:14 51°11.53 2°45.74 245.5 12.7 243 14.2
2003-09-05 07:36:20 51°11.52 2°45.71 245.8 12.7 243 14.2
2003-09-05 07:36:24 51°11.51 2°45.69 246.2 12.7 242 14.2
2003-09-05 07:36:30 51°11.5 2°45.66 246 12.7 242 14.1
2003-09-05 07:36:34 51°11.5 2°45.64 245.7 12.7 242 14.2
2003-09-05 07:36:40 51°11.49 2°45.61 244.9 12.7 241 14.2
2003-09-05 07:36:44 51°11.48 2°45.59 245.2 12.6 243 14.1
2003-09-05 07:36:50 51°11.47 2°45.56 244.6 12.7 241 14
2003-09-05 07:36:54 51°11.46 2°45.54 245.6 12.7 244 14.1
2003-09-05 07:37:00 51°11.45 2°45.51 245.4 12.6 240 14.1
2003-09-05 07:37:04 51°11.45 2°45.5 244.6 12.7 242 14.1
2003-09-05 07:37:10 51°11.44 2°45.47 245.1 12.6 241 13.9
2003-09-05 07:37:14 51°11.43 2°45.45 244.4 12.7 241 14.1
2003-09-05 07:37:20 51°11.42 2°45.42 244.5 12.6 244 14
2003-09-05 07:37:24 51°11.41 2°45.4 245.9 12.6 242 14
2003-09-05 07:37:30 51°11.4 2°45.37 246 12.7 245 14
2003-09-05 07:37:34 51°11.4 2°45.35 246.5 12.6 242 13.9
2003-09-05 07:37:40 51°11.39 2°45.32 245.7 12.6 243 13.8
2003-09-05 07:37:44 51°11.38 2°45.3 245.3 12.6 242 13.8
2003-09-05 07:37:50 51°11.37 2°45.27 245.2 12.6 242 13.9
2003-09-05 07:37:54 51°11.36 2°45.25 244.9 12.6 241 13.8
2003-09-05 07:38:00 51°11.35 2°45.22 244.2 12.7 240 13.7
2003-09-05 07:38:04 51°11.35 2°45.2 244.1 12.6 241 13.8
2003-09-05 07:38:10 51°11.34 2°45.17 243.9 12.5 240 13.8
2003-09-05 07:38:14 51°11.33 2°45.15 243.3 12.6 240 13.7
2003-09-05 07:38:20 51°11.32 2°45.12 243.1 12.7 239 13.7
2003-09-05 07:38:24 51°11.31 2°45.1 243.4 12.6 241 13.7
2003-09-05 07:38:30 51°11.3 2°45.07 243.2 12.6 240 13.6
2003-09-05 07:38:34 51°11.29 2°45.05 243.6 12.7 241 13.6
2003-09-05 07:38:40 51°11.28 2°45.03 244.1 12.6 242 13.6
2003-09-05 07:38:44 51°11.28 2°45.01 244.8 12.7 242 13.6
2003-09-05 07:38:50 51°11.27 2°44.98 244.6 12.8 242 13.5
2003-09-05 07:38:54 51°11.26 2°44.96 244.5 12.8 241 13.5
2003-09-05 07:39:00 51°11.25 2°44.93 244.1 12.9 242 13.5
2003-09-05 07:39:04 51°11.24 2°44.91 245 12.8 242 13.5
2003-09-05 07:39:10 51°11.23 2°44.88 245.2 12.8 242 13.6
2003-09-05 07:39:14 51°11.23 2°44.86 245 12.8 242 13.4
2003-09-05 07:39:20 51°11.22 2°44.83 245.1 12.9 241 13.5
2003-09-05 07:39:24 51°11.21 2°44.81 245 12.8 243 13.4
2003-09-05 07:39:30 51°11.2 2°44.78 245.4 12.8 240 13.3
2003-09-05 07:39:34 51°11.19 2°44.76 244.3 12.9 242 13.4
2003-09-05 07:39:40 51°11.18 2°44.73 245.2 12.8 241 13.5
2003-09-05 07:39:44 51°11.18 2°44.71 244.7 12.7 241 13.3
2003-09-05 07:39:50 51°11.17 2°44.68 244 12.8 241 13.2
2003-09-05 07:39:54 51°11.16 2°44.66 243.8 12.8 241 13.4
2003-09-05 07:40:00 51°11.15 2°44.63 244.5 12.7 241 13.3
2003-09-05 07:40:04 51°11.14 2°44.61 244 12.7 241 13.3
2003-09-05 07:40:10 51°11.13 2°44.58 242.7 12.8 239 13.3
2003-09-05 07:40:14 51°11.13 2°44.56 243.8 12.7 242 13.1
2003-09-05 07:40:20 51°11.12 2°44.53 243.5 12.7 240 13.2
2003-09-05 07:40:24 51°11.11 2°44.51 243.2 12.8 240 13.2
2003-09-05 07:40:30 51°11.1 2°44.48 242.7 12.8 239 13.1
2003-09-05 07:40:34 51°11.09 2°44.46 242.8 12.8 241 13.1
2003-09-05 07:40:40 51°11.08 2°44.43 243.1 12.8 241 13.1
2003-09-05 07:40:44 51°11.07 2°44.41 244.3 12.8 243 13
2003-09-05 07:40:50 51°11.06 2°44.38 244.5 12.8 240 13
2003-09-05 07:40:54 51°11.06 2°44.36 243.8 12.8 241 13
2003-09-05 07:41:00 51°11.05 2°44.33 243.6 12.8 241 12.9
2003-09-05 07:41:04 51°11.04 2°44.31 243.8 12.8 242 12.9
2003-09-05 07:41:10 51°11.03 2°44.28 244.4 12.7 240 12.9
2003-09-05 07:41:14 51°11.02 2°44.27 244 12.8 241 12.8
2003-09-05 07:41:20 51°11.01 2°44.24 243.8 12.8 240 12.9
2003-09-05 07:41:24 51°11 2°44.22 244.3 12.7 242 12.8
2003-09-05 07:41:30 51°10.99 2°44.19 243.8 12.9 240 12.7
2003-09-05 07:41:34 51°10.99 2°44.17 243.8 12.9 242 12.8
2003-09-05 07:41:40 51°10.98 2°44.14 244.9 12.7 241 12.7
2003-09-05 07:41:44 51°10.97 2°44.12 244.1 12.8 241 12.6
2003-09-05 07:41:50 51°10.96 2°44.09 244.6 12.8 242 12.6
2003-09-05 07:41:54 51°10.95 2°44.07 244.4 12.8 241 12.6
2003-09-05 07:42:00 51°10.94 2°44.04 243.9 12.9 241 12.5
2003-09-05 07:42:04 51°10.93 2°44.02 243.9 12.9 241 12.6
2003-09-05 07:42:10 51°10.93 2°43.99 244.1 12.8 243 12.5
2003-09-05 07:42:14 51°10.92 2°43.97 245.3 12.8 242 12.5
2003-09-05 07:42:20 51°10.91 2°43.94 245.3 12.8 242 12.4
2003-09-05 07:42:24 51°10.9 2°43.92 245 12.8 242 12.5
2003-09-05 07:42:30 51°10.89 2°43.89 244.6 12.8 242 12.5
2003-09-05 07:42:34 51°10.88 2°43.87 244.6 12.8 242 12.5
2003-09-05 07:42:40 51°10.88 2°43.84 245.1 12.8 243 12.5
2003-09-05 07:42:44 51°10.87 2°43.82 245.7 12.8 242 12.4
2003-09-05 07:42:50 51°10.86 2°43.79 245.6 12.8 244 12.4
2003-09-05 07:42:54 51°10.85 2°43.77 246.7 12.7 244 12.4
2003-09-05 07:43:00 51°10.84 2°43.74 245.9 12.9 242 12.4
2003-09-05 07:43:04 51°10.84 2°43.72 245.5 12.9 243 12.3
2003-09-05 07:43:10 51°10.83 2°43.69 246 12.7 243 12.3
2003-09-05 07:43:14 51°10.82 2°43.67 245.6 12.7 243 12.3
2003-09-05 07:43:20 51°10.81 2°43.64 245.6 12.8 246 12.3
2003-09-05 07:43:24 51°10.81 2°43.62 248.9 12.7 249 12.4
2003-09-05 07:43:30 51°10.8 2°43.58 251.6 12.7 253 12.4
2003-09-05 07:43:34 51°10.8 2°43.56 255.5 12.7 256 12.4
2003-09-05 07:43:40 51°10.79 2°43.53 258.7 12.7 261 12.4
2003-09-05 07:43:44 51°10.79 2°43.51 262.9 12.7 264 12.4
2003-09-05 07:43:50 51°10.79 2°43.47 266.7 12.8 269 12.5
2003-09-05 07:43:54 51°10.79 2°43.45 271.2 12.8 272 12.5
2003-09-05 07:44:00 51°10.79 2°43.42 275 12.8 276 12.8
2003-09-05 07:44:04 51°10.8 2°43.39 277.4 12.8 276 12.8
2003-09-05 07:44:10 51°10.8 2°43.36 279.8 12.9 280 12.8
2003-09-05 07:44:14 51°10.8 2°43.34 280.9 12.9 279 12.9
2003-09-05 07:44:20 51°10.81 2°43.3 282.3 12.9 281 13
2003-09-05 07:44:24 51°10.81 2°43.28 282.3 13 279 13
2003-09-05 07:44:30 51°10.81 2°43.25 282.1 13 281 13.2
2003-09-05 07:44:34 51°10.81 2°43.22 282.1 13 279 13.4
2003-09-05 07:44:40 51°10.82 2°43.19 282 13.1 281 13.3
2003-09-05 07:44:44 51°10.82 2°43.17 282.4 13.1 280 13.4
2003-09-05 07:44:50 51°10.83 2°43.13 282.5 13.1 282 13.4
2003-09-05 07:44:54 51°10.83 2°43.11 282.9 13.1 280 13.5
2003-09-05 07:45:00 51°10.83 2°43.08 282.1 13.2 282 13.6
2003-09-05 07:45:04 51°10.83 2°43.05 282.8 13.2 280 13.5
2003-09-05 07:45:10 51°10.84 2°43.02 282.7 13.1 282 13.7
2003-09-05 07:45:14 51°10.84 2°43 283 13.1 281 13.7
2003-09-05 07:45:20 51°10.85 2°42.96 283.3 13.1 282 14
2003-09-05 07:45:24 51°10.85 2°42.94 283.2 13.1 281 13.9
2003-09-05 07:45:30 51°10.85 2°42.91 283.4 13.1 281 14
2003-09-05 07:45:34 51°10.86 2°42.88 282.9 13.1 281 14.1
2003-09-05 07:45:40 51°10.86 2°42.85 282.8 13.1 280 14.1
2003-09-05 07:45:44 51°10.86 2°42.83 282.7 13 281 14.1
2003-09-05 07:45:50 51°10.87 2°42.79 281.9 13 280 14.1
2003-09-05 07:45:54 51°10.87 2°42.77 282.4 13 281 14.2
2003-09-05 07:46:00 51°10.87 2°42.74 282.4 13 282 14.2
2003-09-05 07:46:04 51°10.88 2°42.71 282.9 13 281 14.2
2003-09-05 07:46:10 51°10.88 2°42.68 283.1 13 282 14.4
2003-09-05 07:46:14 51°10.88 2°42.66 283 13 281 14.3
2003-09-05 07:46:20 51°10.89 2°42.62 282.7 13 281 14.3
2003-09-05 07:46:24 51°10.89 2°42.6 282.4 13 281 14.3
2003-09-05 07:46:30 51°10.89 2°42.57 281.9 13 280 14.4
2003-09-05 07:46:34 51°10.9 2°42.54 282.3 13 282 14.5
2003-09-05 07:46:40 51°10.9 2°42.51 282.3 12.9 282 14.5
2003-09-05 07:46:44 51°10.9 2°42.49 283 12.9 282 14.5
2003-09-05 07:46:50 51°10.91 2°42.45 283 12.9 282 14.4
2003-09-05 07:46:54 51°10.91 2°42.43 283.4 13 282 14.5
2003-09-05 07:47:00 51°10.92 2°42.4 283.3 12.9 283 14.6
2003-09-05 07:47:04 51°10.92 2°42.38 283.4 12.9 282 14.6
2003-09-05 07:47:10 51°10.92 2°42.34 283.3 13 281 14.7
2003-09-05 07:47:14 51°10.93 2°42.32 282.9 13 282 14.8
2003-09-05 07:47:20 51°10.93 2°42.29 283 13 281 14.7
2003-09-05 07:47:24 51°10.93 2°42.26 282.9 13 282 14.7
2003-09-05 07:47:30 51°10.94 2°42.23 282.6 13 281 14.8
2003-09-05 07:47:34 51°10.94 2°42.21 283.3 13 283 14.8
2003-09-05 07:47:40 51°10.95 2°42.17 283.3 13 282 14.7
2003-09-05 07:47:44 51°10.95 2°42.15 283.7 13 284 14.6
2003-09-05 07:47:50 51°10.95 2°42.12 284 13 282 14.6
2003-09-05 07:47:52 51°10.96 2°42.11 283.8 13 284 14.6
2003-09-05 07:48:00 51°10.96 2°42.06 283.7 12.9 282 14.5
2003-09-05 07:48:04 51°10.97 2°42.04 283.4 12.9 282 14.6
2003-09-05 07:48:10 51°10.97 2°42.01 283.2 12.9 282 14.5
2003-09-05 07:48:14 51°10.97 2°41.98 283 12.9 282 14.6
2003-09-05 07:48:20 51°10.98 2°41.95 283 12.9 282 14.4
2003-09-05 07:48:24 51°10.98 2°41.93 283.1 12.9 281 14.3
2003-09-05 07:48:30 51°10.98 2°41.9 282.8 12.9 282 14.5
2003-09-05 07:48:34 51°10.99 2°41.87 281.7 12.9 279 14.6
2003-09-05 07:48:40 51°10.99 2°41.84 279.4 12.9 278 14.5
2003-09-05 07:48:44 51°10.99 2°41.82 278.2 12.8 274 14.4
2003-09-05 07:48:50 51°10.99 2°41.78 276.6 12.7 273 14.4
2003-09-05 07:48:54 51°10.99 2°41.76 273.5 12.7 270 14.3
2003-09-05 07:49:00 51°10.99 2°41.73 270.3 12.6 266 14.4
2003-09-05 07:49:04 51°10.99 2°41.71 266.8 12.5 262 14.5
2003-09-05 07:49:10 51°10.98 2°41.67 263 12.5 258 14.4
2003-09-05 07:49:14 51°10.98 2°41.65 260.6 12.4 258 14.3
2003-09-05 07:49:20 51°10.97 2°41.62 258.1 12.4 252 14.4
2003-09-05 07:49:24 51°10.97 2°41.6 253.7 12.3 249 14.4
2003-09-05 07:49:30 51°10.96 2°41.57 249.7 12.2 243 14.3
2003-09-05 07:49:34 51°10.95 2°41.55 246 12.3 242 14.5
2003-09-05 07:49:40 51°10.94 2°41.52 241.9 12.3 236 14.5
2003-09-05 07:49:44 51°10.94 2°41.51 238.8 12.4 235 14.5
2003-09-05 07:49:50 51°10.92 2°41.48 236.6 12.4 233 14.4
2003-09-05 07:49:54 51°10.91 2°41.46 235.8 12.5 233 14.6
2003-09-05 07:50:00 51°10.9 2°41.44 234.9 12.6 232 14.5
2003-09-05 07:50:04 51°10.89 2°41.42 234.5 12.6 231 14.5
2003-09-05 07:50:10 51°10.88 2°41.39 233.4 12.6 230 14.5
2003-09-05 07:50:14 51°10.87 2°41.38 233.2 12.6 232 14.5
2003-09-05 07:50:20 51°10.86 2°41.35 234 12.7 232 14.4
2003-09-05 07:50:24 51°10.85 2°41.33 236 12.6 236 14.5
2003-09-05 07:50:30 51°10.84 2°41.31 237.5 12.4 233 14.5
2003-09-05 07:50:34 51°10.83 2°41.29 236.6 12.5 234 14.6
2003-09-05 07:50:40 51°10.82 2°41.26 236.9 12.6 235 14.5
2003-09-05 07:50:44 51°10.81 2°41.24 238 12.5 235 14.6
2003-09-05 07:50:50 51°10.8 2°41.21 238.2 12.6 236 14.5
2003-09-05 07:50:54 51°10.79 2°41.2 238.8 12.6 237 14.6
2003-09-05 07:51:00 51°10.78 2°41.17 239.5 12.7 237 14.6
2003-09-05 07:51:04 51°10.77 2°41.15 240.1 12.7 238 14.5
2003-09-05 07:51:10 51°10.76 2°41.12 241 12.6 237 14.5
2003-09-05 07:51:14 51°10.75 2°41.1 240.3 12.7 237 14.6
2003-09-05 07:51:20 51°10.74 2°41.07 239.4 12.6 234 14.6
2003-09-05 07:51:24 51°10.73 2°41.06 237.1 12.5 233 14.6
2003-09-05 07:51:30 51°10.72 2°41.03 235.6 12.5 232 14.6
2003-09-05 07:51:34 51°10.71 2°41.01 235.3 12.5 233 14.7
2003-09-05 07:51:40 51°10.7 2°40.99 234.4 12.5 231 14.6
2003-09-05 07:51:44 51°10.69 2°40.97 234.3 12.6 232 14.7
2003-09-05 07:51:50 51°10.68 2°40.94 234.6 12.5 232 14.6
2003-09-05 07:51:54 51°10.67 2°40.93 235.1 12.5 232 14.7
2003-09-05 07:51:58 51°10.66 2°40.91 234.9 12.5 231 14.6
2003-09-05 07:52:04 51°10.65 2°40.88 234.3 12.6 231 14.7
2003-09-05 07:52:09 51°10.63 2°40.86 234.1 12.6 231 14.7
2003-09-05 07:52:15 51°10.62 2°40.84 234.5 12.5 231 14.7
2003-09-05 07:52:18 51°10.61 2°40.82 234.4 12.6 232 14.6
2003-09-05 07:52:25 51°10.6 2°40.79 233.6 12.6 229 14.6
2003-09-05 07:52:29 51°10.59 2°40.78 232.3 12.6 229 14.7
2003-09-05 07:52:35 51°10.57 2°40.75 231.1 12.6 227 14.7
2003-09-05 07:52:39 51°10.57 2°40.74 229.8 12.7 226 14.6
2003-09-05 07:52:44 51°10.55 2°40.71 230 12.7 227 14.8
2003-09-05 07:52:49 51°10.54 2°40.69 230.7 12.7 228 14.7
2003-09-05 07:52:55 51°10.53 2°40.67 231.7 12.7 228 14.8
2003-09-05 07:52:59 51°10.52 2°40.65 231.8 12.7 229 14.7
2003-09-05 07:53:05 51°10.5 2°40.63 231.7 12.6 227 14.6
2003-09-05 07:53:09 51°10.5 2°40.61 231 12.7 228 14.7
2003-09-05 07:53:15 51°10.48 2°40.59 231.6 12.6 229 14.7
2003-09-05 07:53:19 51°10.47 2°40.57 232.2 12.5 229 14.8
2003-09-05 07:53:25 51°10.46 2°40.54 231.7 12.6 229 14.7
2003-09-05 07:53:29 51°10.45 2°40.53 232.7 12.6 231 14.7
2003-09-05 07:53:35 51°10.44 2°40.5 233.2 12.5 229 14.7
2003-09-05 07:53:39 51°10.43 2°40.48 232.9 12.6 230 14.6
2003-09-05 07:53:45 51°10.41 2°40.46 233.1 12.6 229 14.6
2003-09-05 07:53:49 51°10.4 2°40.44 232.8 12.6 229 14.7
2003-09-05 07:53:55 51°10.39 2°40.42 232.1 12.6 228 14.6
2003-09-05 07:53:59 51°10.38 2°40.4 231.2 12.7 228 14.6
2003-09-05 07:54:05 51°10.37 2°40.38 230.8 12.8 228 14.5
2003-09-05 07:54:09 51°10.36 2°40.36 231.1 12.7 229 14.5
2003-09-05 07:54:15 51°10.34 2°40.33 232.2 12.7 230 14.6
2003-09-05 07:54:19 51°10.33 2°40.32 232.7 12.7 229 14.4
2003-09-05 07:54:25 51°10.32 2°40.29 232.2 12.7 228 14.5
2003-09-05 07:54:29 51°10.31 2°40.28 231.5 12.7 228 14.4
2003-09-05 07:54:35 51°10.3 2°40.25 230.5 12.7 227 14.4
2003-09-05 07:54:39 51°10.29 2°40.23 230.3 12.6 228 14.4
2003-09-05 07:54:45 51°10.27 2°40.21 230.3 12.8 227 14.4
2003-09-05 07:54:49 51°10.26 2°40.19 230.4 12.9 228 14.4
2003-09-05 07:54:55 51°10.25 2°40.17 230.9 12.7 228 14.2
2003-09-05 07:54:59 51°10.24 2°40.15 231.1 12.6 228 14.3
2003-09-05 07:55:05 51°10.23 2°40.13 230.3 12.6 227 14.2
2003-09-05 07:55:09 51°10.22 2°40.11 230.1 12.6 227 14.2
2003-09-05 07:55:15 51°10.2 2°40.09 231.2 12.6 229 14.2
2003-09-05 07:55:19 51°10.19 2°40.07 231.5 12.5 228 14.2
2003-09-05 07:55:25 51°10.18 2°40.05 230.9 12.5 228 14.1
2003-09-05 07:55:29 51°10.17 2°40.03 230.7 12.5 227 14
2003-09-05 07:55:35 51°10.16 2°40 230.2 12.6 227 13.9
2003-09-05 07:55:39 51°10.15 2°39.99 230.6 12.6 228 13.7
2003-09-05 07:55:45 51°10.13 2°39.96 230.8 12.6 229 13.8
2003-09-05 07:55:49 51°10.12 2°39.95 231.3 12.7 228 13.7
2003-09-05 07:55:55 51°10.11 2°39.92 231.5 12.7 230 13.8
2003-09-05 07:55:59 51°10.1 2°39.9 232.5 12.6 229 13.7
2003-09-05 07:56:05 51°10.09 2°39.88 232.7 12.8 230 13.6
2003-09-05 07:56:09 51°10.08 2°39.86 232.8 12.7 229 13.6
2003-09-05 07:56:15 51°10.06 2°39.84 232.2 12.6 229 13.5
2003-09-05 07:56:19 51°10.05 2°39.82 231.1 12.6 228 13.5
2003-09-05 07:56:25 51°10.04 2°39.79 230.7 12.8 229 13.4
2003-09-05 07:56:29 51°10.03 2°39.78 231.2 12.7 228 13.3
2003-09-05 07:56:35 51°10.02 2°39.75 231.5 12.7 228 13.3
2003-09-05 07:56:39 51°10.01 2°39.74 231.2 12.9 228 13.4
2003-09-05 07:56:45 51°9.99 2°39.71 231.5 12.7 228 13.2
2003-09-05 07:56:49 51°9.98 2°39.69 231.5 12.8 228 13.3
2003-09-05 07:56:55 51°9.97 2°39.67 231.1 12.9 229 13.1
2003-09-05 07:56:59 51°9.96 2°39.65 231.5 12.8 228 13.1
2003-09-05 07:57:05 51°9.95 2°39.63 231 12.8 229 13.2
2003-09-05 07:57:09 51°9.94 2°39.61 231.4 12.8 228 13
2003-09-05 07:57:15 51°9.92 2°39.58 231.2 12.9 229 12.9
2003-09-05 07:57:19 51°9.91 2°39.57 231.5 12.8 229 12.9
2003-09-05 07:57:25 51°9.9 2°39.54 231.2 12.7 228 13.1
2003-09-05 07:57:29 51°9.89 2°39.53 230.8 12.7 228 12.9
2003-09-05 07:57:35 51°9.87 2°39.5 230.2 12.8 227 12.9
2003-09-05 07:57:39 51°9.87 2°39.48 230.5 12.8 228 12.9
2003-09-05 07:57:45 51°9.85 2°39.46 230.3 12.8 227 12.9
2003-09-05 07:57:49 51°9.84 2°39.44 230.1 12.8 228 12.8
2003-09-05 07:57:55 51°9.83 2°39.42 231.4 12.8 229 12.8
2003-09-05 07:57:59 51°9.82 2°39.4 231.5 12.9 228 12.8
2003-09-05 07:58:05 51°9.8 2°39.37 231.4 12.9 229 12.8
2003-09-05 07:58:09 51°9.79 2°39.36 231.6 12.8 230 12.8
2003-09-05 07:58:15 51°9.78 2°39.33 231.4 12.8 230 12.7
2003-09-05 07:58:19 51°9.77 2°39.31 233.3 12.8 235 12.6
2003-09-05 07:58:25 51°9.76 2°39.28 237.3 12.8 239 12.6
2003-09-05 07:58:29 51°9.75 2°39.26 242.8 12.8 244 12.6
2003-09-05 07:58:35 51°9.75 2°39.23 247 12.7 248 12.7
2003-09-05 07:58:39 51°9.74 2°39.21 250.9 12.7 252 12.8
2003-09-05 07:58:45 51°9.74 2°39.18 255.1 12.8 258 12.7
2003-09-05 07:58:49 51°9.73 2°39.16 259.1 12.8 261 12.8
2003-09-05 07:58:55 51°9.73 2°39.12 263 12.7 266 12.8
2003-09-05 07:58:59 51°9.73 2°39.1 267.8 12.7 270 13
2003-09-05 07:59:05 51°9.73 2°39.07 271.8 12.8 274 12.9
2003-09-05 07:59:09 51°9.74 2°39.04 274.7 12.8 275 13.2
2003-09-05 07:59:15 51°9.74 2°39.01 277.5 12.9 279 13.3
2003-09-05 07:59:19 51°9.74 2°38.99 280.3 12.9 283 13.2
2003-09-05 07:59:25 51°9.75 2°38.96 284.3 12.8 287 13.3
2003-09-05 07:59:29 51°9.75 2°38.93 288.1 12.9 290 13.5
2003-09-05 07:59:35 51°9.76 2°38.9 292.6 12.9 297 13.6
2003-09-05 07:59:39 51°9.77 2°38.88 298.6 13 301 13.5
2003-09-05 07:59:45 51°9.78 2°38.86 302.3 12.9 306 13.7
2003-09-05 07:59:49 51°9.79 2°38.84 307 13 310 14.1
2003-09-05 07:59:55 51°9.81 2°38.81 311.4 13.1 316 14
2003-09-05 07:59:59 51°9.82 2°38.8 316.8 13.1 320 14.2
2003-09-05 08:00:05 51°9.84 2°38.78 321.5 13.2 326 14.6
2003-09-05 08:00:09 51°9.85 2°38.77 326.5 13.2 330 14.8
2003-09-05 08:00:15 51°9.87 2°38.75 331.5 13.3 334 15.1
2003-09-05 08:00:19 51°9.88 2°38.74 334.1 13.4 336 15.6
2003-09-05 08:00:25 51°9.9 2°38.73 336.4 13.5 338 15.7
2003-09-05 08:00:29 51°9.92 2°38.72 338.2 13.6 339 15.9
2003-09-05 08:00:35 51°9.94 2°38.71 339.2 13.6 340 16.2
2003-09-05 08:00:39 51°9.95 2°38.7 340 13.6 341 16.4
2003-09-05 08:00:45 51°9.98 2°38.69 340.5 13.7 341 16.6
2003-09-05 08:00:49 51°9.99 2°38.68 340.7 13.7 341 16.8
2003-09-05 08:00:55 51°10.01 2°38.67 340.5 13.7 341 16.8
2003-09-05 08:00:59 51°10.03 2°38.66 340.4 13.7 340 17.1
2003-09-05 08:01:05 51°10.05 2°38.65 340.3 13.7 340 17.1
2003-09-05 08:01:09 51°10.06 2°38.64 339.7 13.7 339 17.3
2003-09-05 08:01:15 51°10.08 2°38.62 337.1 13.6 334 17.4
2003-09-05 08:01:19 51°10.1 2°38.61 334 13.6 333 17.5
2003-09-05 08:01:25 51°10.12 2°38.59 331.6 13.5 330 17.5
2003-09-05 08:01:29 51°10.13 2°38.58 329.9 13.4 329 18
2003-09-05 08:01:35 51°10.15 2°38.56 328.5 13.5 328 17.7
2003-09-05 08:01:39 51°10.16 2°38.55 328 13.5 328 17.8
2003-09-05 08:01:45 51°10.18 2°38.53 327.7 13.5 328 17.5
2003-09-05 08:01:49 51°10.19 2°38.52 327.6 13.5 328 18
2003-09-05 08:01:55 51°10.21 2°38.5 327.9 13.6 328 18.1
2003-09-05 08:01:59 51°10.22 2°38.49 327.9 13.6 328 17.6
2003-09-05 08:02:05 51°10.24 2°38.47 328 13.6 328 17.6
2003-09-05 08:02:09 51°10.26 2°38.46 328 13.6 328 17.7
2003-09-05 08:02:15 51°10.27 2°38.44 328.1 13.6 328 18
2003-09-05 08:02:19 51°10.29 2°38.42 328 13.6 328 18
2003-09-05 08:02:25 51°10.31 2°38.4 327.9 13.6 327 18
2003-09-05 08:02:29 51°10.32 2°38.39 327.6 13.5 328 18.3
2003-09-05 08:02:35 51°10.34 2°38.37 327.4 13.6 327 18.3
2003-09-05 08:02:39 51°10.35 2°38.36 327.5 13.5 327 18.4
2003-09-05 08:02:45 51°10.37 2°38.34 326.7 13.4 323 18.6
2003-09-05 08:02:49 51°10.38 2°38.32 323.1 13.3 319 18.7
2003-09-05 08:02:55 51°10.4 2°38.3 318.6 13.1 314 19.2
2003-09-05 08:02:59 51°10.4 2°38.28 313.9 13 310 19.2
2003-09-05 08:03:05 51°10.42 2°38.25 308.8 12.8 304 19.3
2003-09-05 08:03:09 51°10.42 2°38.23 303.4 12.7 300 19.6
2003-09-05 08:03:15 51°10.43 2°38.2 297.5 12.6 292 19.7
2003-09-05 08:03:19 51°10.44 2°38.18 292.4 12.5 289 19.6
2003-09-05 08:03:25 51°10.44 2°38.15 286.7 12.4 281 19.7
2003-09-05 08:03:29 51°10.44 2°38.13 280.7 12.3 276 19.9
2003-09-05 08:03:35 51°10.44 2°38.09 275.2 12.2 269 19.9
2003-09-05 08:03:39 51°10.44 2°38.07 269.1 12.1 264 19.9
2003-09-05 08:03:45 51°10.44 2°38.04 263.5 12 257 19.9
2003-09-05 08:03:49 51°10.43 2°38.02 257.7 12 252 19.8
2003-09-05 08:03:55 51°10.42 2°37.99 251.4 11.8 243 19.9
2003-09-05 08:03:59 51°10.42 2°37.98 244.4 11.9 238 19.9
2003-09-05 08:04:05 51°10.4 2°37.95 239.3 12 232 19.8
2003-09-05 08:04:09 51°10.39 2°37.93 233.1 12.2 227 20
2003-09-05 08:04:15 51°10.38 2°37.91 230 12.3 226 19.9
2003-09-05 08:04:19 51°10.37 2°37.9 227.5 12.4 223 20
2003-09-05 08:04:25 51°10.35 2°37.87 224.9 12.6 222 20
2003-09-05 08:04:29 51°10.34 2°37.86 224.7 12.6 222 20
2003-09-05 08:04:35 51°10.33 2°37.84 224.5 12.5 220 19.9
2003-09-05 08:04:39 51°10.32 2°37.82 222.5 12.6 219 19.9
2003-09-05 08:04:45 51°10.3 2°37.8 221.6 12.7 219 19.9
2003-09-05 08:04:49 51°10.29 2°37.79 221.7 12.7 219 19.9
2003-09-05 08:04:55 51°10.27 2°37.77 221.3 12.7 218 19.9
2003-09-05 08:04:59 51°10.26 2°37.76 221 12.7 217 19.9
2003-09-05 08:05:05 51°10.24 2°37.73 220.5 12.6 218 19.8
2003-09-05 08:05:09 51°10.23 2°37.72 220.6 12.7 218 19.8
2003-09-05 08:05:15 51°10.22 2°37.7 221.5 12.8 220 19.8
2003-09-05 08:05:19 51°10.21 2°37.68 223.4 12.7 222 19.7
2003-09-05 08:05:25 51°10.19 2°37.66 224.1 12.7 222 19.8
2003-09-05 08:05:29 51°10.18 2°37.65 225.1 12.8 224 19.6
2003-09-05 08:05:35 51°10.17 2°37.62 226.5 12.7 224 19.7
2003-09-05 08:05:39 51°10.16 2°37.61 226.5 12.6 224 19.7
2003-09-05 08:05:45 51°10.14 2°37.58 226.3 12.8 223 19.6
2003-09-05 08:05:49 51°10.13 2°37.57 226.3 12.8 224 19.6
2003-09-05 08:05:55 51°10.11 2°37.54 227.1 12.8 223 19.7
2003-09-05 08:05:59 51°10.1 2°37.53 226.4 12.7 223 19.6
2003-09-05 08:06:05 51°10.09 2°37.51 225.8 12.8 223 19.6
2003-09-05 08:06:09 51°10.08 2°37.49 225.8 12.8 224 19.6
2003-09-05 08:06:15 51°10.06 2°37.47 227.2 12.7 224 19.4
2003-09-05 08:06:19 51°10.05 2°37.45 226.4 12.8 223 19.5
2003-09-05 08:06:25 51°10.04 2°37.43 226.4 12.8 225 19.6
2003-09-05 08:06:29 51°10.03 2°37.41 226.5 12.8 223 19.4
2003-09-05 08:06:35 51°10.01 2°37.39 225.8 12.8 224 19.5
2003-09-05 08:06:39 51°10 2°37.37 226.2 12.8 224 19.4
2003-09-05 08:06:45 51°9.99 2°37.35 226.5 12.8 223 19.4
2003-09-05 08:06:49 51°9.98 2°37.33 225.8 12.8 223 19.2
2003-09-05 08:06:55 51°9.96 2°37.31 225.8 12.8 223 19.3
2003-09-05 08:06:59 51°9.95 2°37.3 225.8 12.8 223 19.2
2003-09-05 08:07:05 51°9.93 2°37.27 225.8 12.7 222 19.3
2003-09-05 08:07:09 51°9.92 2°37.26 225.2 12.8 222 19.1
2003-09-05 08:07:15 51°9.91 2°37.24 225 12.8 222 19
2003-09-05 08:07:19 51°9.9 2°37.22 225.7 12.9 224 19.1
2003-09-05 08:07:25 51°9.88 2°37.2 226.2 12.8 224 19.1
2003-09-05 08:07:29 51°9.87 2°37.18 226.4 12.8 224 18.9
2003-09-05 08:07:35 51°9.86 2°37.16 225.8 12.8 223 18.8
2003-09-05 08:07:39 51°9.85 2°37.14 225.8 12.8 223 18.9
2003-09-05 08:07:45 51°9.83 2°37.12 225.8 12.7 223 18.9
2003-09-05 08:07:49 51°9.82 2°37.1 225.3 12.6 222 18.8
2003-09-05 08:07:55 51°9.8 2°37.08 225 12.6 223 18.8
2003-09-05 08:07:59 51°9.79 2°37.07 226 12.5 223 18.6
2003-09-05 08:08:05 51°9.78 2°37.04 226.1 12.6 223 18.6
2003-09-05 08:08:09 51°9.77 2°37.03 225.7 12.7 223 18.4
2003-09-05 08:08:15 51°9.75 2°37.01 225.3 12.7 223 18.6
2003-09-05 08:08:19 51°9.74 2°36.99 225.5 12.7 223 18.2
2003-09-05 08:08:25 51°9.73 2°36.97 226 12.6 224 18.2
2003-09-05 08:08:29 51°9.72 2°36.95 226.1 12.7 223 18
2003-09-05 08:08:35 51°9.7 2°36.93 225.8 12.8 224 18.4
2003-09-05 08:08:39 51°9.69 2°36.91 226.4 12.7 225 18.3
2003-09-05 08:08:45 51°9.68 2°36.89 227 12.7 224 18.2
2003-09-05 08:08:49 51°9.67 2°36.87 227.2 12.8 225 18.2
2003-09-05 08:08:55 51°9.65 2°36.85 226.4 12.8 223 17.7
2003-09-05 08:08:59 51°9.64 2°36.83 226.3 12.7 225 18.1
2003-09-05 08:09:05 51°9.63 2°36.81 226.1 12.8 222 18
2003-09-05 08:09:09 51°9.62 2°36.8 226.4 12.8 225 18
2003-09-05 08:09:15 51°9.6 2°36.77 226.4 12.8 221 17.9
2003-09-05 08:09:19 51°9.59 2°36.76 225.7 12.8 225 17.5
2003-09-05 08:09:25 51°9.57 2°36.73 226.4 12.8 223 17.3
2003-09-05 08:09:29 51°9.56 2°36.72 226.9 12.8 225 17.3
2003-09-05 08:09:35 51°9.55 2°36.7 227 12.7 222 17.5
2003-09-05 08:09:39 51°9.54 2°36.68 225.8 12.8 223 17.4
2003-09-05 08:09:45 51°9.52 2°36.66 225.7 12.8 222 17.3
2003-09-05 08:09:49 51°9.51 2°36.64 226 12.8 224 17.1
2003-09-05 08:09:55 51°9.5 2°36.62 226.2 12.8 223 17.5
2003-09-05 08:09:59 51°9.49 2°36.6 226.8 12.8 225 17.5
2003-09-05 08:10:05 51°9.47 2°36.58 227.2 12.8 224 17.6
2003-09-05 08:10:09 51°9.46 2°36.56 227.1 12.8 225 17.3
2003-09-05 08:10:15 51°9.45 2°36.54 227.1 12.7 223 17.3
2003-09-05 08:10:19 51°9.44 2°36.52 225.9 12.7 223 17.6
2003-09-05 08:10:25 51°9.42 2°36.5 225.4 12.8 222 17.5
2003-09-05 08:10:29 51°9.41 2°36.49 225.5 12.8 223 17.6
2003-09-05 08:10:35 51°9.39 2°36.46 225.8 12.6 223 17.7
2003-09-05 08:10:39 51°9.38 2°36.45 226.2 12.6 223 17.7
2003-09-05 08:10:45 51°9.37 2°36.43 226.2 12.6 224 17.8
2003-09-05 08:10:49 51°9.36 2°36.41 227.1 12.5 225 17.9
2003-09-05 08:10:55 51°9.35 2°36.39 227.6 12.4 224 17.8
2003-09-05 08:10:59 51°9.34 2°36.37 226.4 12.3 222 17.8
2003-09-05 08:11:05 51°9.32 2°36.35 225.6 12.3 224 17.8
2003-09-05 08:11:09 51°9.31 2°36.33 226 12.4 224 17.8
2003-09-05 08:11:15 51°9.3 2°36.31 225.8 12.4 225 17.8
2003-09-05 08:11:19 51°9.29 2°36.3 228.3 12.4 228 17.8
2003-09-05 08:11:25 51°9.27 2°36.27 231.1 12.5 231 17.8
2003-09-05 08:11:29 51°9.27 2°36.25 234.8 12.5 236 17.8
2003-09-05 08:11:35 51°9.26 2°36.22 239.1 12.4 239 17.9
2003-09-05 08:11:39 51°9.25 2°36.2 243.1 11.9 245 17.7
2003-09-05 08:11:45 51°9.24 2°36.18 246.7 10.8 247 17.7
2003-09-05 08:11:49 51°9.24 2°36.16 251 10.2 253 17.7
2003-09-05 08:11:55 51°9.24 2°36.14 256.1 9.3 258 17.9
2003-09-05 08:11:59 51°9.24 2°36.12 260.7 8.8 263 17.9
2003-09-05 08:12:05 51°9.24 2°36.1 266 8.1 269 17.9
2003-09-05 08:12:09 51°9.24 2°36.09 269.4 7.7 272 18
2003-09-05 08:12:15 51°9.24 2°36.07 274.6 7.2 279 18
2003-09-05 08:12:19 51°9.24 2°36.06 277.5 6.9 282 18
2003-09-05 08:12:25 51°9.24 2°36.04 281.5 6.6 286 18
2003-09-05 08:12:29 51°9.24 2°36.03 285.1 6.3 289 17.9
2003-09-05 08:12:35 51°9.25 2°36.01 288.7 6 293 17.9
2003-09-05 08:12:39 51°9.25 2°36.01 290.7 5.8 295 17.8
2003-09-05 08:12:45 51°9.26 2°35.99 292.9 5.6 298 18.3
2003-09-05 08:12:49 51°9.26 2°35.98 294.9 5.4 299 18.3
2003-09-05 08:12:55 51°9.26 2°35.97 296.4 5.2 302 17.9
2003-09-05 08:12:59 51°9.27 2°35.97 297.5 5.1 303 18.2
2003-09-05 08:13:05 51°9.27 2°35.95 298.7 4.9 305 18
2003-09-05 08:13:09 51°9.27 2°35.95 299.5 4.8 305 17.5
2003-09-05 08:13:15 51°9.28 2°35.94 300.1 4.7 306 18.1
2003-09-05 08:13:19 51°9.28 2°35.93 300.4 4.6 306 18.4
2003-09-05 08:13:25 51°9.29 2°35.92 300.6 4.5 306 18.4
2003-09-05 08:13:29 51°9.29 2°35.92 300.7 4.4 307 17.7
2003-09-05 08:13:35 51°9.29 2°35.91 300.6 4.3 307 18.2
2003-09-05 08:13:39 51°9.3 2°35.9 300.3 4.2 306 18.4
2003-09-05 08:13:45 51°9.3 2°35.89 299.7 4.1 307 18.6
2003-09-05 08:13:49 51°9.3 2°35.89 299.5 4.1 306 17.9
2003-09-05 08:13:55 51°9.31 2°35.88 299.2 4 306 18.3
2003-09-05 08:13:59 51°9.31 2°35.87 298.8 3.9 306 18.5
2003-09-05 08:14:05 51°9.31 2°35.86 298.3 3.8 305 18.6
2003-09-05 08:14:09 51°9.32 2°35.86 297.7 3.7 305 17.9
2003-09-05 08:14:15 51°9.32 2°35.85 296.8 3.7 303 18.6
2003-09-05 08:14:19 51°9.32 2°35.84 296 3.6 303 18.8
2003-09-05 08:14:25 51°9.32 2°35.84 295.1 3.6 302 18.6
2003-09-05 08:14:29 51°9.33 2°35.83 293.9 3.5 301 18.1
2003-09-05 08:14:35 51°9.33 2°35.82 292.7 3.4 299 18.8
2003-09-05 08:14:39 51°9.33 2°35.82 292.1 3.3 299 18.5
2003-09-05 08:14:45 51°9.33 2°35.81 291.2 3.2 298 18.2
2003-09-05 08:14:49 51°9.33 2°35.81 290.5 3.2 298 18.7
2003-09-05 08:14:55 51°9.34 2°35.8 289.5 3 298 18.7
2003-09-05 08:14:59 51°9.34 2°35.79 288.6 3 297 18.2
2003-09-05 08:15:05 51°9.34 2°35.79 287.9 2.9 295 18.4
2003-09-05 08:15:09 51°9.34 2°35.78 286.9 2.8 295 18.7
2003-09-05 08:15:15 51°9.34 2°35.78 285.2 2.7 293 18.9
2003-09-05 08:15:19 51°9.34 2°35.77 284.4 2.6 293 19.1
2003-09-05 08:15:25 51°9.35 2°35.77 283 2.5 291 18
2003-09-05 08:15:29 51°9.35 2°35.76 281.6 2.5 290 18.6
2003-09-05 08:15:35 51°9.35 2°35.76 279.9 2.3 288 18.9
2003-09-05 08:15:39 51°9.35 2°35.75 278.7 2.3 288 17.9
2003-09-05 08:15:45 51°9.35 2°35.75 277.7 2.2 287 18.4
2003-09-05 08:15:49 51°9.35 2°35.74 276.4 2.2 286 18.8
2003-09-05 08:15:55 51°9.35 2°35.74 275 2.1 284 18.1
2003-09-05 08:15:59 51°9.35 2°35.73 274.3 2.1 284 18.2
2003-09-05 08:16:05 51°9.35 2°35.73 273.2 2 283 18.4
2003-09-05 08:16:09 51°9.35 2°35.73 272.2 2 284 18.7
2003-09-05 08:16:15 51°9.35 2°35.72 271.2 1.9 282 18.4
2003-09-05 08:16:19 51°9.35 2°35.72 270.3 1.8 281 18.1
2003-09-05 08:16:25 51°9.36 2°35.71 269.4 1.8 282 18
2003-09-05 08:16:29 51°9.36 2°35.71 268.8 1.8 282 18.3
2003-09-05 08:16:35 51°9.36 2°35.71 267.6 1.7 280 18.4
2003-09-05 08:16:39 51°9.36 2°35.7 266.9 1.7 279 18.3
2003-09-05 08:16:45 51°9.36 2°35.7 265.7 1.6 277 17.9
2003-09-05 08:16:49 51°9.36 2°35.7 264.8 1.6 277 18
2003-09-05 08:16:55 51°9.36 2°35.69 263.4 1.5 276 18.4
2003-09-05 08:16:59 51°9.36 2°35.69 262.6 1.5 277 18.6
2003-09-05 08:17:05 51°9.36 2°35.69 261.5 1.4 276 18.8
2003-09-05 08:17:09 51°9.36 2°35.68 260.6 1.4 275 18.6
2003-09-05 08:17:15 51°9.36 2°35.68 259.6 1.4 274 18
2003-09-05 08:17:19 51°9.36 2°35.68 258.9 1.3 274 18.1
2003-09-05 08:17:25 51°9.36 2°35.67 257.9 1.4 274 18.5
2003-09-05 08:17:29 51°9.36 2°35.67 257.1 1.5 266 18.6
2003-09-05 08:17:35 51°9.36 2°35.67 256.5 1.6 268 18.4
2003-09-05 08:17:39 51°9.36 2°35.66 256.1 1.5 264 18
2003-09-05 08:17:45 51°9.36 2°35.66 255.6 1.5 264 18.3
2003-09-05 08:17:49 51°9.36 2°35.66 255.2 1.6 266 18.4
2003-09-05 08:17:55 51°9.36 2°35.65 255 1.6 262 18.5
2003-09-05 08:17:59 51°9.36 2°35.65 254.8 1.6 264 18.5
2003-09-05 08:18:05 51°9.36 2°35.65 254.7 1.6 260 18
2003-09-05 08:18:09 51°9.36 2°35.64 254.6 1.6 266 18.3
2003-09-05 08:18:15 51°9.36 2°35.64 254.7 1.7 262 18.5
2003-09-05 08:18:19 51°9.36 2°35.64 254.7 1.7 264 18.6
2003-09-05 08:18:25 51°9.36 2°35.63 254.9 1.6 262 18.3
2003-09-05 08:18:29 51°9.36 2°35.63 254.9 1.6 263 18.1
2003-09-05 08:18:35 51°9.35 2°35.63 255 1.6 259 18.4
2003-09-05 08:18:39 51°9.35 2°35.62 254.9 1.6 265 18.7
2003-09-05 08:18:45 51°9.35 2°35.62 255 1.6 263 18.8
2003-09-05 08:18:49 51°9.35 2°35.62 254.9 1.6 267 18.1
2003-09-05 08:18:55 51°9.35 2°35.61 254.9 1.5 263 18.3
2003-09-05 08:18:59 51°9.35 2°35.61 254.9 1.5 265 18.7
2003-09-05 08:19:05 51°9.35 2°35.61 255 1.5 265 19.1
2003-09-05 08:19:09 51°9.35 2°35.6 255.1 1.5 264 18.6
2003-09-05 08:19:15 51°9.35 2°35.6 255.2 1.5 264 18.1
2003-09-05 08:19:19 51°9.35 2°35.6 255.1 1.5 268 18.4
2003-09-05 08:19:25 51°9.35 2°35.59 255 1.5 264 18.8
2003-09-05 08:19:29 51°9.35 2°35.59 254.9 1.5 266 18.9
2003-09-05 08:19:35 51°9.35 2°35.59 254.9 1.4 265 18.6
2003-09-05 08:19:39 51°9.35 2°35.58 255 1.4 267 18.1
2003-09-05 08:19:45 51°9.35 2°35.58 255.1 1.4 267 18.3
2003-09-05 08:19:49 51°9.35 2°35.58 255 1.4 269 18.7
2003-09-05 08:19:55 51°9.35 2°35.57 254.8 1.4 267 18.9
2003-09-05 08:19:59 51°9.35 2°35.57 254.7 1.3 266 19.2
2003-09-05 08:20:05 51°9.35 2°35.57 254.4 1.3 267 18.7
2003-09-05 08:20:09 51°9.35 2°35.57 254.3 1.3 267 18.3
2003-09-05 08:20:15 51°9.35 2°35.56 254.4 1.3 268 18.5
2003-09-05 08:20:19 51°9.35 2°35.56 254.6 1.3 268 18.7
2003-09-05 08:20:25 51°9.35 2°35.56 254.7 1.2 267 19
2003-09-05 08:20:29 51°9.35 2°35.56 255.1 1.2 269 18.8
2003-09-05 08:20:35 51°9.35 2°35.55 255.6 1.2 269 18.3
2003-09-05 08:20:39 51°9.35 2°35.55 256.4 1.2 273 18.5
2003-09-05 08:20:45 51°9.35 2°35.55 257.3 1.3 274 18.6
2003-09-05 08:20:49 51°9.35 2°35.54 258.1 1.3 276 18.9
2003-09-05 08:20:55 51°9.35 2°35.54 259.1 1.3 278 19.1
2003-09-05 08:20:59 51°9.35 2°35.54 260.1 1.2 278 19
2003-09-05 08:21:05 51°9.35 2°35.54 261.3 1.2 280 18.4
2003-09-05 08:21:09 51°9.35 2°35.53 262.4 1.2 284 18.3
2003-09-05 08:21:15 51°9.35 2°35.53 263.6 1.2 282 18.6
2003-09-05 08:21:19 51°9.35 2°35.53 264.5 1.2 287 18.8
2003-09-05 08:21:25 51°9.36 2°35.53 265.6 1.2 287 18.8
2003-09-05 08:21:29 51°9.36 2°35.52 266.7 1.2 290 18.5
2003-09-05 08:21:35 51°9.36 2°35.52 268 1.2 288 18.7
2003-09-05 08:21:39 51°9.36 2°35.52 269.2 1.2 290 18.9
2003-09-05 08:21:45 51°9.36 2°35.52 270.4 1.2 289 19
2003-09-05 08:21:49 51°9.36 2°35.51 271.7 1.2 292 18.8
2003-09-05 08:21:55 51°9.36 2°35.51 272.9 1.2 291 18.6
2003-09-05 08:21:59 51°9.36 2°35.51 273.8 1.2 295 18.5
2003-09-05 08:22:05 51°9.36 2°35.51 275 1.2 299 18.3
2003-09-05 08:22:09 51°9.36 2°35.5 276.3 1.2 297 18.3
2003-09-05 08:22:15 51°9.36 2°35.5 277.4 1.2 302 18.4
2003-09-05 08:22:19 51°9.36 2°35.5 278.5 1.2 298 18.3
2003-09-05 08:22:25 51°9.36 2°35.5 279.6 1.2 304 18.3
2003-09-05 08:22:29 51°9.36 2°35.5 280.8 1.2 304 18.3
2003-09-05 08:22:35 51°9.37 2°35.49 281.9 1.2 305 18.4